createdAt,value
2023-01-31T00:00:12.483Z,99221.16
2023-01-31T00:02:42.814Z,99213.88
2023-01-31T00:05:10.794Z,99206.80
2023-01-31T00:07:38.752Z,99209.77
2023-01-31T00:10:07.525Z,99205.81
2023-01-31T00:12:35.978Z,99203.38
2023-01-31T00:15:04.740Z,99198.63
2023-01-31T00:17:33.034Z,99200.09
2023-01-31T00:20:01.056Z,99201.88
2023-01-31T00:22:29.632Z,99205.38
2023-01-31T00:24:57.793Z,99202.67
2023-01-31T00:27:25.830Z,99198.29
2023-01-31T00:29:54.657Z,99195.96
2023-01-31T00:32:22.799Z,99200.46
2023-01-31T00:34:55.516Z,99197.98
2023-01-31T00:37:23.929Z,99198.33
2023-01-31T00:39:53.333Z,99199.74
2023-01-31T00:42:21.273Z,99198.34
2023-01-31T00:44:49.602Z,99195.44
2023-01-31T00:47:18.849Z,99193.01
2023-01-31T00:49:47.089Z,99193.04
2023-01-31T00:52:15.239Z,99195.27
2023-01-31T00:54:43.229Z,99193.38
2023-01-31T00:57:11.261Z,99192.93
2023-01-31T00:59:39.296Z,99185.98
2023-01-31T01:02:07.492Z,99182.07
2023-01-31T01:04:35.608Z,99183.63
2023-01-31T01:07:03.643Z,99188.29
2023-01-31T01:09:34.954Z,99189.42
2023-01-31T01:12:03.597Z,99189.31
2023-01-31T01:14:32.138Z,99192.77
2023-01-31T01:17:00.765Z,99189.67
2023-01-31T01:19:28.810Z,99189.70
2023-01-31T01:21:56.888Z,99186.89
2023-01-31T01:24:25.540Z,99187.77
2023-01-31T01:26:53.638Z,99191.94
2023-01-31T01:29:21.780Z,99188.30
2023-01-31T01:31:51.163Z,99183.20
2023-01-31T01:34:20.175Z,99182.48
2023-01-31T01:36:48.306Z,99177.95
2023-01-31T01:39:18.288Z,99179.09
2023-01-31T01:41:47.052Z,99181.69
2023-01-31T01:44:42.557Z,99180.92
2023-01-31T01:47:50.144Z,99175.67
2023-01-31T01:50:27.618Z,99175.98
2023-01-31T01:53:01.401Z,99173.13
2023-01-31T01:55:42.931Z,99174.86
2023-01-31T01:58:19.518Z,99171.67
2023-01-31T02:00:47.709Z,99173.11
2023-01-31T02:03:15.893Z,99172.95
2023-01-31T02:05:49.538Z,99170.30
2023-01-31T02:08:19.382Z,99178.07
2023-01-31T02:10:56.707Z,99173.95
2023-01-31T02:13:24.929Z,99171.73
2023-01-31T02:15:53.172Z,99173.09
2023-01-31T02:18:22.424Z,99170.13
2023-01-31T02:21:30.183Z,99166.86
2023-01-31T02:24:13.573Z,99168.10
2023-01-31T02:27:10.992Z,99167.42
2023-01-31T02:30:13.972Z,99170.23
2023-01-31T02:32:49.753Z,99168.36
2023-01-31T02:35:39.395Z,99172.21
2023-01-31T02:38:31.983Z,99167.05
2023-01-31T02:41:10.252Z,99168.15
2023-01-31T02:44:09.165Z,99170.16
2023-01-31T02:46:55.909Z,99172.98
2023-01-31T02:49:37.377Z,99176.19
2023-01-31T02:52:35.540Z,99174.67
2023-01-31T02:55:43.364Z,99177.84
2023-01-31T02:58:12.668Z,99181.15
2023-01-31T03:00:42.237Z,99178.86
2023-01-31T03:03:32.012Z,99184.62
2023-01-31T03:06:23.454Z,99184.15
2023-01-31T03:09:05.900Z,99186.46
2023-01-31T03:11:55.759Z,99179.52
2023-01-31T03:14:44.477Z,99179.19
2023-01-31T03:17:33.999Z,99182.90
2023-01-31T03:20:08.570Z,99187.10
2023-01-31T03:22:46.171Z,99184.48
2023-01-31T03:25:15.509Z,99189.77
2023-01-31T03:27:49.165Z,99191.79
2023-01-31T03:30:21.302Z,99189.34
2023-01-31T03:32:56.192Z,99186.85
2023-01-31T03:35:26.099Z,99185.05
2023-01-31T03:38:02.213Z,99186.79
2023-01-31T03:40:37.309Z,99186.89
2023-01-31T03:43:09.562Z,99189.36
2023-01-31T03:45:42.960Z,99189.25
2023-01-31T03:48:15.238Z,99183.08
2023-01-31T03:50:47.579Z,99182.86
2023-01-31T03:53:36.988Z,99183.66
2023-01-31T03:56:09.656Z,99190.05
2023-01-31T03:58:41.275Z,99194.86
2023-01-31T04:01:09.495Z,99196.14
2023-01-31T04:03:42.760Z,99192.48
2023-01-31T04:06:10.947Z,99190.79
2023-01-31T04:08:39.953Z,99189.77
2023-01-31T04:11:11.744Z,99189.70
2023-01-31T04:13:40.119Z,99194.09
2023-01-31T04:16:08.279Z,99194.39
2023-01-31T04:18:38.079Z,99198.06
2023-01-31T04:21:06.698Z,99204.24
2023-01-31T04:23:34.684Z,99203.17
2023-01-31T04:26:03.532Z,99203.15
2023-01-31T04:28:32.126Z,99202.27
2023-01-31T04:31:00.374Z,99201.73
2023-01-31T04:33:30.496Z,99203.80
2023-01-31T04:35:58.883Z,99204.80
2023-01-31T04:38:26.950Z,99204.48
2023-01-31T04:40:55.635Z,99201.58
2023-01-31T04:43:24.212Z,99203.19
2023-01-31T04:45:52.263Z,99204.54
2023-01-31T04:48:20.342Z,99204.83
2023-01-31T04:50:49.088Z,99207.16
2023-01-31T04:53:17.016Z,99213.52
2023-01-31T04:55:46.845Z,99209.30
2023-01-31T04:58:14.828Z,99210.56
2023-01-31T05:00:45.092Z,99211.29
2023-01-31T05:03:13.418Z,99213.74
2023-01-31T05:05:41.672Z,99215.42
2023-01-31T05:08:09.842Z,99220.83
2023-01-31T05:10:37.871Z,99223.45
2023-01-31T05:13:06.350Z,99225.64
2023-01-31T05:15:34.440Z,99224.44
2023-01-31T05:18:03.077Z,99231.95
2023-01-31T05:20:33.903Z,99233.67
2023-01-31T05:23:02.677Z,99233.71
2023-01-31T05:25:31.625Z,99231.22
2023-01-31T05:28:00.359Z,99234.54
2023-01-31T05:30:28.440Z,99234.86
2023-01-31T05:32:57.219Z,99232.70
2023-01-31T05:35:25.490Z,99229.27
2023-01-31T05:37:54.580Z,99225.45
2023-01-31T05:40:23.688Z,99227.23
2023-01-31T05:42:58.087Z,99230.67
2023-01-31T05:45:26.031Z,99232.95
2023-01-31T05:47:54.108Z,99230.15
2023-01-31T05:50:22.313Z,99236.88
2023-01-31T05:52:51.176Z,99240.13
2023-01-31T05:55:19.316Z,99239.19
2023-01-31T05:57:47.472Z,99246.27
2023-01-31T06:00:15.850Z,99245.29
2023-01-31T06:02:43.785Z,99247.27
2023-01-31T06:05:14.031Z,99254.36
2023-01-31T06:07:42.545Z,99259.23
2023-01-31T06:10:11.468Z,99261.60
2023-01-31T06:12:39.451Z,99259.51
2023-01-31T08:26:30.681Z,99315.13
2023-01-31T08:29:00.322Z,99318.96
2023-01-31T08:31:28.636Z,99318.34
2023-01-31T08:33:57.531Z,99317.11
2023-01-31T08:36:31.937Z,99322.58
2023-01-31T08:39:00.369Z,99321.38
2023-01-31T08:41:29.388Z,99321.71
2023-01-31T08:43:58.907Z,99321.33
2023-01-31T08:46:30.805Z,99320.86
2023-01-31T08:49:04.635Z,99320.09
2023-01-31T08:51:34.177Z,99321.84
2023-01-31T08:54:02.183Z,99318.27
2023-01-31T08:56:30.448Z,99322.64
2023-01-31T08:58:58.597Z,99320.77
2023-01-31T09:01:26.773Z,99315.40
2023-01-31T09:03:57.361Z,99320.89
2023-01-31T09:06:27.675Z,99323.46
2023-01-31T09:08:59.912Z,99325.38
2023-01-31T09:11:29.083Z,99322.04
2023-01-31T09:13:57.977Z,99320.90
2023-01-31T09:16:26.328Z,99320.52
2023-01-31T09:18:56.041Z,99322.77
2023-01-31T09:21:24.382Z,99324.13
2023-01-31T09:23:57.237Z,99323.91
2023-01-31T09:26:25.406Z,99326.70
2023-01-31T09:28:53.650Z,99332.32
2023-01-31T09:31:22.152Z,99332.85
2023-01-31T09:33:50.446Z,99330.08
2023-01-31T09:36:20.417Z,99330.80
2023-01-31T09:38:48.715Z,99330.26
2023-01-31T09:41:17.480Z,99329.14
2023-01-31T09:43:49.818Z,99331.42
2023-01-31T09:46:19.547Z,99330.88
2023-01-31T09:48:51.226Z,99326.13
2023-01-31T09:51:19.364Z,99329.45
2023-01-31T09:53:47.451Z,99332.26
2023-01-31T09:56:34.673Z,99332.38
2023-01-31T09:59:12.809Z,99330.48
2023-01-31T10:01:47.913Z,99333.08
2023-01-31T10:04:21.989Z,99335.15
2023-01-31T10:07:01.644Z,99337.83
2023-01-31T10:09:35.981Z,99341.05
2023-01-31T10:12:06.468Z,99337.89
2023-01-31T10:14:36.625Z,99333.67
2023-01-31T10:18:07.858Z,99330.25
2023-01-31T10:20:39.092Z,99325.11
2023-01-31T10:23:15.131Z,99323.31
2023-01-31T10:25:46.260Z,99328.39
2023-01-31T10:28:30.396Z,99323.85
2023-01-31T10:31:15.700Z,99322.61
2023-01-31T10:33:49.807Z,99320.19
2023-01-31T10:36:29.221Z,99320.44
2023-01-31T10:39:07.968Z,99312.75
2023-01-31T10:41:48.121Z,99316.05
2023-01-31T10:44:31.389Z,99311.02
2023-01-31T10:46:59.514Z,99307.36
2023-01-31T10:49:27.666Z,99304.00
2023-01-31T10:52:18.055Z,99305.34
2023-01-31T10:54:55.194Z,99305.69
2023-01-31T10:57:23.250Z,99307.77
2023-01-31T10:59:55.347Z,99311.19
2023-01-31T11:02:25.240Z,99315.15
2023-01-31T11:04:57.971Z,99313.36
2023-01-31T11:07:29.734Z,99317.38
2023-01-31T11:09:58.630Z,99315.05
2023-01-31T11:12:43.938Z,99312.32
2023-01-31T11:15:17.677Z,99314.95
2023-01-31T11:17:46.474Z,99314.94
2023-01-31T11:20:24.443Z,99308.55
2023-01-31T11:22:53.548Z,99309.16
2023-01-31T11:25:22.674Z,99309.59
2023-01-31T11:27:53.091Z,99305.13
2023-01-31T11:30:36.330Z,99310.48
2023-01-31T11:33:05.175Z,99305.85
2023-01-31T11:35:34.550Z,99307.73
2023-01-31T11:38:09.689Z,99303.22
2023-01-31T11:40:38.756Z,99305.42
2023-01-31T11:43:23.866Z,99304.83
2023-01-31T11:45:59.403Z,99304.48
2023-01-31T11:48:41.161Z,99303.13
2023-01-31T11:51:09.111Z,99303.80
2023-01-31T11:53:43.517Z,99306.23
2023-01-31T11:56:23.125Z,99308.56
2023-01-31T11:58:53.828Z,99308.14
2023-01-31T12:01:23.113Z,99310.42
2023-01-31T12:04:02.676Z,99309.29
2023-01-31T12:06:39.270Z,99307.21
2023-01-31T14:27:57.851Z,99371.48
2023-01-31T14:30:27.369Z,99380.13
2023-01-31T14:33:13.799Z,99382.72
2023-01-31T14:36:19.721Z,99385.13
2023-01-31T14:39:01.796Z,99385.22
2023-01-31T14:41:33.071Z,99384.89
2023-01-31T14:44:19.438Z,99386.63
2023-01-31T14:47:18.444Z,99383.92
2023-01-31T14:49:55.775Z,99387.52
2023-01-31T14:52:48.419Z,99386.67
2023-01-31T14:55:32.100Z,99392.79
2023-01-31T14:58:01.413Z,99393.45
2023-01-31T15:00:34.885Z,99397.30
2023-01-31T15:03:26.584Z,99401.82
2023-01-31T15:05:57.201Z,99403.16
2023-01-31T15:08:25.190Z,99403.98
2023-01-31T15:11:02.154Z,99402.58
2023-01-31T15:13:38.301Z,99402.23
2023-01-31T15:16:30.658Z,99400.86
2023-01-31T15:19:08.545Z,99405.03
2023-01-31T15:21:48.048Z,99405.85
2023-01-31T15:24:26.187Z,99406.91
2023-01-31T15:26:54.585Z,99404.38
2023-01-31T15:29:25.074Z,99407.04
2023-01-31T15:31:55.479Z,99402.34
2023-01-31T15:34:27.747Z,99409.20
2023-01-31T15:37:06.499Z,99415.11
2023-01-31T15:39:44.217Z,99414.70
2023-01-31T15:42:29.492Z,99402.70
2023-01-31T15:45:22.011Z,99412.57
2023-01-31T15:48:01.260Z,99411.20
2023-01-31T15:50:33.332Z,99417.02
2023-01-31T15:53:06.518Z,99419.68
2023-01-31T15:55:35.480Z,99415.61
2023-01-31T15:58:06.999Z,99422.26
2023-01-31T16:00:37.395Z,99426.41
2023-01-31T16:03:07.916Z,99420.05
2023-01-31T16:05:37.913Z,99423.04
2023-01-31T16:08:20.342Z,99424.32
2023-01-31T16:10:48.618Z,99421.70
2023-01-31T16:13:16.692Z,99419.03
2023-01-31T16:15:44.742Z,99421.46
2023-01-31T16:18:12.947Z,99423.81
2023-01-31T16:20:51.219Z,99429.14
2023-01-31T16:23:33.429Z,99423.77
2023-01-31T16:26:08.994Z,99423.50
2023-01-31T16:28:45.883Z,99424.63
2023-01-31T16:31:16.586Z,99437.80
2023-01-31T16:34:00.105Z,99436.00
2023-01-31T16:36:49.111Z,99429.02
2023-01-31T16:39:24.281Z,99433.86
2023-01-31T16:41:52.652Z,99436.53
2023-01-31T16:44:22.114Z,99436.61
2023-01-31T16:46:50.695Z,99435.48
2023-01-31T16:49:29.935Z,99439.17
2023-01-31T16:52:24.764Z,99437.17
2023-01-31T16:54:54.088Z,99437.30
2023-01-31T16:57:23.127Z,99439.20
2023-01-31T16:59:54.506Z,99439.58
2023-01-31T17:02:25.761Z,99433.48
2023-01-31T17:04:56.320Z,99433.41
2023-01-31T17:07:27.182Z,99435.94
2023-01-31T17:09:57.544Z,99435.04
2023-01-31T17:12:29.803Z,99436.51
2023-01-31T17:15:01.621Z,99439.93
2023-01-31T17:17:34.808Z,99437.63
2023-01-31T17:20:03.082Z,99434.86
2023-01-31T17:22:32.319Z,99433.77
2023-01-31T17:25:00.448Z,99436.08
2023-01-31T17:27:28.451Z,99435.52
2023-01-31T17:29:56.559Z,99437.39
2023-01-31T17:32:24.539Z,99439.11
2023-01-31T17:34:52.726Z,99444.38
2023-01-31T17:37:31.193Z,99448.51
2023-01-31T17:39:59.763Z,99443.57
2023-01-31T17:42:27.839Z,99445.05
2023-01-31T17:44:56.057Z,99447.48
2023-01-31T17:47:25.316Z,99441.67
2023-01-31T17:50:00.018Z,99439.10
2023-01-31T17:52:28.207Z,99442.20
2023-01-31T17:54:56.295Z,99445.57
2023-01-31T17:57:24.458Z,99445.34
2023-01-31T17:59:52.528Z,99449.08
2023-01-31T18:02:20.796Z,99448.50
2023-01-31T18:04:48.806Z,99446.05
2023-01-31T18:07:17.062Z,99447.40
2023-01-31T20:20:09.317Z,99429.88
2023-01-31T20:22:36.734Z,99425.90
2023-01-31T20:25:04.745Z,99426.16
2023-01-31T20:27:34.756Z,99425.05
2023-01-31T20:30:01.807Z,99422.72
2023-01-31T20:32:29.189Z,99422.58
2023-01-31T20:34:56.608Z,99415.20
2023-01-31T20:37:23.863Z,99416.80
2023-01-31T20:39:51.113Z,99418.23
2023-01-31T20:42:17.752Z,99423.18
2023-01-31T20:44:44.333Z,99421.55
2023-01-31T20:47:10.992Z,99418.76
2023-01-31T20:49:37.766Z,99423.08
2023-01-31T20:52:04.888Z,99420.72
2023-01-31T20:54:33.396Z,99419.71
2023-01-31T20:57:00.242Z,99423.67
2023-01-31T20:59:27.801Z,99424.79
2023-01-31T21:01:54.448Z,99430.00
2023-01-31T21:04:21.008Z,99430.66
2023-01-31T21:06:48.915Z,99430.44
2023-01-31T21:09:15.770Z,99427.73
2023-01-31T21:11:42.641Z,99430.52
2023-01-31T21:14:09.569Z,99431.42
2023-01-31T21:16:36.169Z,99432.11
2023-01-31T21:19:02.793Z,99430.81
2023-01-31T21:21:29.810Z,99435.52
2023-01-31T21:23:56.777Z,99433.73
2023-01-31T21:26:25.681Z,99429.31
2023-01-31T21:28:53.770Z,99432.45
2023-01-31T21:31:20.596Z,99436.23
2023-01-31T21:33:49.988Z,99435.81
2023-01-31T21:36:18.547Z,99432.09
2023-01-31T21:38:45.231Z,99432.13
2023-01-31T21:41:30.872Z,99434.52
2023-01-31T21:43:57.645Z,99435.05
2023-01-31T21:46:24.893Z,99433.11
2023-01-31T21:48:51.991Z,99432.76
2023-01-31T21:51:19.909Z,99433.31
2023-01-31T21:53:46.445Z,99429.49
2023-01-31T21:56:20.213Z,99434.63
2023-01-31T21:58:46.991Z,99436.20
2023-01-31T22:01:20.879Z,99432.27
2023-01-31T22:03:48.975Z,99427.14
2023-01-31T22:06:20.429Z,99423.89
2023-01-31T22:08:55.623Z,99424.95
2023-01-31T22:11:22.481Z,99416.17
2023-01-31T22:13:52.198Z,99420.55
2023-01-31T22:16:20.885Z,99421.02
2023-01-31T22:18:47.693Z,99419.81
2023-01-31T22:21:19.077Z,99420.88
2023-01-31T22:23:47.482Z,99423.89
2023-01-31T22:26:19.121Z,99424.47
2023-01-31T22:28:46.422Z,99423.33
2023-01-31T22:31:13.181Z,99428.35
2023-01-31T22:33:40.890Z,99421.92
2023-01-31T22:36:08.954Z,99420.03
2023-01-31T22:38:35.839Z,99416.55
2023-01-31T22:41:04.295Z,99415.17
2023-01-31T22:43:35.873Z,99417.56
2023-01-31T22:46:02.984Z,99414.89
2023-01-31T22:48:29.869Z,99414.49
2023-01-31T22:50:57.954Z,99415.56
2023-01-31T22:53:25.091Z,99417.50
2023-01-31T22:55:52.393Z,99415.27
2023-01-31T22:58:19.489Z,99413.04
2023-01-31T23:00:48.339Z,99410.11
2023-01-31T23:03:15.001Z,99411.22
2023-01-31T23:05:44.582Z,99408.91
2023-01-31T23:08:12.566Z,99412.31
2023-01-31T23:10:39.948Z,99410.98
2023-01-31T23:13:06.681Z,99412.37
2023-01-31T23:15:33.769Z,99410.42
2023-01-31T23:18:20.816Z,99405.45
2023-01-31T23:20:47.632Z,99410.67
2023-01-31T23:23:14.212Z,99406.98
2023-01-31T23:25:40.967Z,99407.10
2023-01-31T23:28:07.607Z,99405.33
2023-01-31T23:30:34.542Z,99405.66
2023-01-31T23:33:02.059Z,99406.34
2023-01-31T23:35:31.478Z,99408.11
2023-01-31T23:37:58.151Z,99405.64
2023-01-31T23:40:24.725Z,99401.00
2023-01-31T23:42:52.309Z,99403.41
2023-01-31T23:45:19.295Z,99405.25
2023-01-31T23:47:45.956Z,99403.27
2023-01-31T23:50:12.681Z,99407.73
2023-01-31T23:52:42.196Z,99404.79
2023-01-31T23:55:09.583Z,99405.41
2023-01-31T23:57:36.364Z,99406.44
